Diyarbakir, Turkey

2:59 AM +03 on December 04, 2016 (GMT +0300)
Diyarbakir | | Change Station

Elev 2221 ft 37.88 °N, 40.18 °E | Updated 39 minutes ago

Light Rain Showers
Light Showers Rain
43 °F
Feels Like 40 °F
N
5
Wind Variable Wind from North

Today
High -- | Low -- °F
--% Chance of Precip.
Yesterday
High -- | Low -- °F
Precip. -- in
Pressure 30.30 in
Visibility 6.2 miles
Clouds Mostly Cloudy 3500 ft
Mostly Cloudy 9000 ft
Windchill 40 °F
Dew Point 41 °F
Humidity 93%
Rainfall 0.00 in
Snow Depth Not available.
7:19 AM 4:59 PM
Waxing Crescent, 18% visible
METAR LTCC 032320Z 35004KT 320V020 9999 -SHRA BKN035 BKN090 06/05 Q1026 NOSIG RMK RWY16 VRB01KT
Pressure 30.30 in
Visibility 6.2 miles
Clouds Mostly Cloudy 3500 ft
Mostly Cloudy 9000 ft
Windchill 40 °F
Dew Point 41 °F
Humidity 93%
Rainfall 0.00 in
Snow Depth Not available.
7:19 AM 4:59 PM
Waxing Crescent, 18% visible
METAR LTCC 032320Z 35004KT 320V020 9999 -SHRA BKN035 BKN090 06/05 Q1026 NOSIG RMK RWY16 VRB01KT

10-Day Weather Forecast

×

Almanac

Astronomy

Dec. 04, 2016 Rise Set
Actual Time
Civil Twilight
Nautical Twilight
Astronomical Twilight
Moon
Length of Visible Light
Length of Day
Tomorrow will be .
, % of the Moon is Illuminated

Today's Extremes

Country Highs Country Lows

Community

WunderPhotos

Upload Photos

1,955,536 photos uploaded!

WunderBlog® & News

Nearby

Air Quality

  Air Quality AQ Index Pollutant
Not available.

Snow Depth

Station Depth Elevation

Earthquake Activity

City Distance Mag. Time & Date
Minimum magnitude displayed is 2.5.

Coastal Water Temperatures

Place Temperature

Stations

Nearby Weather Stations

Station Location Temp. Windchill Dew Point Humidity Wind Precip. Elev Updated Type